createdAt,value
2022-12-15T00:00:03.431Z,49846.63
2022-12-15T00:02:50.446Z,49870.53
2022-12-15T00:05:36.163Z,49840.63
2022-12-15T00:08:29.115Z,49848.63
2022-12-15T00:11:14.776Z,49794.78
2022-12-15T00:14:00.543Z,49858.59
2022-12-15T00:16:45.984Z,49834.66
2022-12-15T00:19:31.320Z,49858.59
2022-12-15T00:22:16.518Z,49846.63
2022-12-15T00:25:01.917Z,49832.66
2022-12-15T00:27:47.946Z,49850.59
2022-12-15T00:30:33.120Z,49832.66
2022-12-15T00:33:18.132Z,49850.59
2022-12-15T00:36:03.386Z,49826.69
2022-12-15T00:38:45.138Z,49888.50
2022-12-15T00:41:13.962Z,49826.69
2022-12-15T00:43:40.639Z,49822.69
2022-12-15T00:46:26.697Z,49844.63
2022-12-15T00:48:53.361Z,49834.66
2022-12-15T00:51:20.636Z,49874.53
2022-12-15T00:54:06.501Z,49822.69
2022-12-15T00:56:51.795Z,49846.63
2022-12-15T00:59:37.404Z,49876.53
2022-12-15T01:02:22.486Z,49820.69
2022-12-15T01:05:07.706Z,49862.56
2022-12-15T01:07:53.084Z,49870.53
2022-12-15T01:10:38.315Z,49810.75
2022-12-15T01:13:23.994Z,49802.75
2022-12-15T01:16:09.230Z,49842.63
2022-12-15T01:18:54.484Z,49836.66
2022-12-15T01:21:24.590Z,49846.63
2022-12-15T01:23:52.684Z,49850.59
2022-12-15T01:26:19.962Z,49874.53
2022-12-15T01:28:46.611Z,49828.69
2022-12-15T01:31:13.932Z,49834.66
2022-12-15T01:33:42.732Z,49878.53
2022-12-15T01:36:09.771Z,49828.69
2022-12-15T01:38:36.372Z,49858.59
2022-12-15T01:41:07.201Z,49858.59
2022-12-15T01:43:36.828Z,49842.63
2022-12-15T01:46:09.558Z,49844.63
2022-12-15T01:48:51.939Z,49830.66
2022-12-15T01:51:33.717Z,49826.69
2022-12-15T01:54:05.121Z,49832.66
2022-12-15T01:56:37.703Z,49832.66
2022-12-15T01:59:07.698Z,49864.56
2022-12-15T02:01:34.827Z,49846.63
2022-12-15T02:04:02.350Z,49846.63
2022-12-15T02:06:29.749Z,49846.63
2022-12-15T02:08:59.075Z,49822.69
2022-12-15T02:11:44.175Z,49834.66
2022-12-15T02:14:14.647Z,49820.69
2022-12-15T02:16:58.180Z,49846.63
2022-12-15T02:20:03.666Z,49846.63
2022-12-15T02:22:38.995Z,49862.56
2022-12-15T02:25:34.822Z,49846.63
2022-12-15T02:28:10.386Z,49842.63
2022-12-15T02:30:36.989Z,49820.69
2022-12-15T02:33:12.425Z,49856.59
2022-12-15T02:35:58.052Z,49778.84
2022-12-15T02:38:37.091Z,49852.59
2022-12-15T02:41:06.126Z,49844.63
2022-12-15T02:43:37.854Z,49826.69
2022-12-15T02:46:46.020Z,49814.72
2022-12-15T02:49:26.896Z,49852.59
2022-12-15T02:52:23.665Z,49818.72
2022-12-15T02:55:00.431Z,49818.72
2022-12-15T02:57:45.597Z,49810.75
2022-12-15T03:00:13.415Z,49842.63
2022-12-15T03:02:42.552Z,49856.59
2022-12-15T03:05:10.119Z,49850.59
2022-12-15T03:07:36.754Z,49872.53
2022-12-15T03:10:06.126Z,49832.66
2022-12-15T03:12:33.119Z,49810.75
2022-12-15T03:14:59.755Z,49838.66
2022-12-15T03:17:26.435Z,49872.53
2022-12-15T03:19:53.152Z,49882.50
2022-12-15T03:22:20.436Z,49854.59
2022-12-15T03:24:48.335Z,49886.50
2022-12-15T03:27:15.554Z,49858.59
2022-12-15T03:29:42.203Z,49858.59
2022-12-15T03:32:09.010Z,49838.66
2022-12-15T03:34:35.662Z,49872.53
2022-12-15T03:37:02.308Z,49852.59
2022-12-15T03:39:28.944Z,49818.72
2022-12-15T03:41:55.539Z,49830.66
2022-12-15T03:44:22.407Z,49864.56
2022-12-15T03:46:49.112Z,49852.59
2022-12-15T03:49:15.721Z,49830.66
2022-12-15T03:51:42.403Z,49842.63
2022-12-15T03:54:09.027Z,49852.59
2022-12-15T03:56:35.781Z,49846.63
2022-12-15T03:59:03.254Z,49846.63
2022-12-15T04:01:35.032Z,49842.63
2022-12-15T04:04:02.538Z,49852.59
2022-12-15T04:06:30.928Z,49838.66
2022-12-15T04:08:57.677Z,49858.59
2022-12-15T04:11:24.308Z,49832.66
2022-12-15T04:13:50.933Z,49878.53
2022-12-15T04:16:20.124Z,49862.56
2022-12-15T04:18:47.290Z,49844.63
2022-12-15T04:21:14.170Z,49862.56
2022-12-15T04:23:59.256Z,49826.69
2022-12-15T04:26:44.660Z,49788.81
2022-12-15T04:29:29.827Z,49818.72
2022-12-15T04:32:15.006Z,49886.50
2022-12-15T04:35:00.151Z,49850.59
2022-12-15T04:37:45.432Z,49842.63
2022-12-15T04:40:30.621Z,49844.63
2022-12-15T04:43:15.748Z,49830.66
2022-12-15T04:46:00.927Z,49870.53
2022-12-15T04:48:46.157Z,49822.69
2022-12-15T04:51:31.407Z,49886.50
2022-12-15T04:54:16.461Z,49846.63
2022-12-15T04:57:01.528Z,49832.66
2022-12-15T04:59:46.731Z,49814.72
2022-12-15T05:02:32.014Z,49846.63
2022-12-15T05:05:17.299Z,49842.63
2022-12-15T05:08:02.495Z,49854.59
2022-12-15T05:10:47.897Z,49868.56
2022-12-15T05:13:33.348Z,49866.56
2022-12-15T05:16:18.865Z,49840.63
2022-12-15T05:19:04.224Z,49840.63
2022-12-15T05:21:49.429Z,49830.66
2022-12-15T05:24:34.928Z,49846.63
2022-12-15T05:27:20.104Z,49840.63
2022-12-15T05:30:05.217Z,49862.56
2022-12-15T05:32:33.179Z,49858.59
2022-12-15T05:35:01.253Z,49834.66
2022-12-15T05:37:27.880Z,49844.63
2022-12-15T05:39:54.536Z,49886.50
2022-12-15T05:42:21.211Z,49840.63
2022-12-15T05:44:47.956Z,49818.72
2022-12-15T05:47:16.459Z,49846.63
2022-12-15T05:49:43.063Z,49868.56
2022-12-15T05:52:09.671Z,49846.63
2022-12-15T05:54:36.366Z,49880.50
2022-12-15T05:57:03.020Z,49858.59
2022-12-15T05:59:29.661Z,49850.59
2022-12-15T06:01:56.370Z,49822.69
2022-12-15T06:04:23.214Z,49874.53
2022-12-15T06:06:49.959Z,49872.53
2022-12-15T06:09:16.583Z,49866.56
2022-12-15T06:11:43.851Z,49848.63
2022-12-15T06:14:10.455Z,49830.66
2022-12-15T06:16:42.567Z,49834.66
2022-12-15T06:19:16.494Z,49866.56
2022-12-15T06:21:43.112Z,49862.56
2022-12-15T06:24:10.055Z,49836.66
2022-12-15T06:26:39.481Z,49846.63
2022-12-15T06:29:08.613Z,49806.75
2022-12-15T06:31:37.050Z,49842.63
2022-12-15T06:34:06.754Z,49826.69
2022-12-15T06:36:33.447Z,49862.56
2022-12-15T06:39:01.772Z,49864.56
2022-12-15T06:41:32.251Z,49882.50
2022-12-15T06:43:59.699Z,49864.56
2022-12-15T06:46:28.641Z,49850.59
2022-12-15T06:48:55.989Z,49914.41
2022-12-15T06:51:23.039Z,49856.59
2022-12-15T06:53:50.871Z,49840.63
2022-12-15T06:56:34.095Z,49844.63
2022-12-15T06:59:02.098Z,49840.63
2022-12-15T07:01:29.375Z,49858.59
2022-12-15T07:03:56.864Z,49842.63
2022-12-15T07:06:23.842Z,49854.59
2022-12-15T07:08:53.796Z,49832.66
2022-12-15T07:11:22.164Z,49832.66
2022-12-15T07:13:50.801Z,49836.66
2022-12-15T07:16:17.643Z,49850.59
2022-12-15T07:18:44.624Z,49858.59
2022-12-15T07:21:11.346Z,49870.53
2022-12-15T07:23:55.977Z,49826.69
2022-12-15T07:26:23.840Z,49824.69
2022-12-15T07:28:50.669Z,49884.50
2022-12-15T07:31:17.975Z,49818.72
2022-12-15T07:33:44.801Z,49842.63
2022-12-15T07:36:11.526Z,49832.66
2022-12-15T07:38:38.275Z,49884.50
2022-12-15T07:41:06.964Z,49870.53
2022-12-15T07:43:34.251Z,49850.59
2022-12-15T07:46:01.837Z,49850.59
2022-12-15T07:48:29.217Z,49852.59
2022-12-15T07:51:07.413Z,49836.66
2022-12-15T07:53:37.349Z,49872.53
2022-12-15T07:56:08.429Z,49864.56
2022-12-15T07:58:37.029Z,49864.56
2022-12-15T08:01:06.497Z,49856.59
2022-12-15T08:03:34.100Z,49854.59
2022-12-15T08:06:05.400Z,49858.59
2022-12-15T08:08:33.114Z,49876.53
2022-12-15T08:11:04.693Z,49852.59
2022-12-15T08:14:01.514Z,49842.63
2022-12-15T08:16:17.989Z,49834.66
2022-12-15T08:18:44.635Z,49848.63
2022-12-15T08:21:11.806Z,49850.59
2022-12-15T08:23:40.269Z,49864.56
2022-12-15T08:26:12.496Z,49818.72
2022-12-15T08:28:40.766Z,49846.63
2022-12-15T08:31:25.214Z,49854.59
2022-12-15T08:33:51.893Z,49828.69
2022-12-15T08:36:19.607Z,49832.66
2022-12-15T08:38:47.016Z,49852.59
2022-12-15T08:41:13.609Z,49840.63
2022-12-15T08:43:47.545Z,49828.69
2022-12-15T08:46:22.359Z,49836.66
2022-12-15T08:48:49.941Z,49854.59
2022-12-15T08:51:17.569Z,49852.59
2022-12-15T08:53:44.976Z,49826.69
2022-12-15T08:56:13.361Z,49838.66
2022-12-15T08:58:40.428Z,49842.63
2022-12-15T09:01:12.945Z,49834.66
2022-12-15T09:03:41.483Z,49842.63
2022-12-15T09:06:14.755Z,49822.69
2022-12-15T09:08:41.867Z,49810.75
2022-12-15T09:11:08.649Z,49846.63
2022-12-15T09:13:35.977Z,49836.66
2022-12-15T09:16:09.854Z,49858.59
2022-12-15T09:18:37.583Z,49812.72
2022-12-15T09:21:06.632Z,49858.59
2022-12-15T09:23:35.607Z,49838.66
2022-12-15T09:26:05.498Z,49836.66
2022-12-15T09:28:33.075Z,49826.69
2022-12-15T09:31:11.267Z,49830.66
2022-12-15T09:33:39.133Z,49806.75
2022-12-15T09:36:05.957Z,49814.72
2022-12-15T09:38:40.475Z,49802.75
2022-12-15T09:41:27.201Z,49778.84
2022-12-15T09:44:05.406Z,49796.78
2022-12-15T09:46:50.709Z,49814.72
2022-12-15T09:49:44.732Z,49778.84
2022-12-15T09:52:18.151Z,49822.69
2022-12-15T09:54:46.210Z,49788.81
2022-12-15T09:57:44.678Z,49792.78
2022-12-15T10:00:25.841Z,49818.72
2022-12-15T10:03:26.827Z,49810.75
2022-12-15T10:06:21.159Z,49792.78
2022-12-15T10:09:40.781Z,49826.69
2022-12-15T10:12:16.425Z,49810.75
2022-12-15T10:14:53.106Z,49808.75
2022-12-15T10:17:25.301Z,49786.81
2022-12-15T10:20:08.381Z,49818.72
2022-12-15T10:22:37.556Z,49798.78
2022-12-15T10:25:31.273Z,49794.78
2022-12-15T10:28:16.400Z,49806.75
2022-12-15T10:30:51.307Z,49774.84
2022-12-15T10:33:27.991Z,49780.84
2022-12-15T10:35:56.279Z,49778.84
2022-12-15T10:38:32.585Z,49788.81
2022-12-15T10:41:02.538Z,49790.81
2022-12-15T10:43:38.198Z,49794.78
2022-12-15T10:46:14.421Z,49760.91
2022-12-15T10:48:43.375Z,49802.75
2022-12-15T10:51:42.472Z,49796.78
2022-12-15T10:54:13.207Z,49762.88
2022-12-15T10:56:52.769Z,49770.88
2022-12-15T10:59:36.572Z,49784.81
2022-12-15T11:02:24.345Z,49768.88
2022-12-15T11:05:03.610Z,49804.75
2022-12-15T11:07:40.182Z,49770.88
2022-12-15T11:10:50.210Z,49766.88
2022-12-15T11:13:19.600Z,49740.97
2022-12-15T11:15:51.791Z,49754.91
2022-12-15T11:18:22.607Z,49727.00
2022-12-15T11:21:12.565Z,49734.97
2022-12-15T11:23:51.380Z,49754.91
2022-12-15T11:26:32.062Z,49727.00
2022-12-15T11:29:15.729Z,49738.97
2022-12-15T11:31:44.595Z,49768.88
2022-12-15T11:34:14.975Z,49727.00
2022-12-15T11:37:03.184Z,49719.03
2022-12-15T11:39:37.444Z,49727.00
2022-12-15T11:42:13.376Z,49734.97
2022-12-15T11:45:14.142Z,49731.00
2022-12-15T11:47:49.157Z,49731.00
2022-12-15T11:50:31.047Z,49762.88
2022-12-15T11:53:21.855Z,49711.06
2022-12-15T11:55:57.567Z,49701.09
2022-12-15T11:58:32.146Z,49687.13
2022-12-15T12:01:05.018Z,49703.09
2022-12-15T12:04:03.612Z,49675.19
2022-12-15T12:06:42.654Z,49661.22
2022-12-15T12:09:26.401Z,49679.16
2022-12-15T12:12:26.547Z,49695.09
2022-12-15T12:15:11.435Z,49631.31
2022-12-15T12:17:49.691Z,49615.38
2022-12-15T12:20:41.008Z,49673.19
2022-12-15T12:23:22.001Z,49657.22
2022-12-15T12:26:15.863Z,49651.25
2022-12-15T12:29:21.282Z,49625.34
2022-12-15T12:32:31.310Z,49651.25
2022-12-15T12:35:31.249Z,49627.31
2022-12-15T12:38:03.882Z,49627.31
2022-12-15T12:40:37.055Z,49643.28
2022-12-15T12:43:08.661Z,49639.28
2022-12-15T12:45:58.941Z,49663.22
2022-12-15T12:48:40.909Z,49631.31
2022-12-15T12:51:22.417Z,49639.28
2022-12-15T12:53:50.323Z,49641.28
2022-12-15T12:56:37.837Z,49603.41
2022-12-15T12:59:25.955Z,49605.41
2022-12-15T13:01:55.163Z,49647.25
2022-12-15T13:04:33.828Z,49611.38
2022-12-15T13:07:00.484Z,49617.38
2022-12-15T13:09:39.534Z,49651.25
2022-12-15T13:15:43.013Z,49589.44
2022-12-15T13:18:16.809Z,49605.41
2022-12-15T13:20:45.527Z,49585.47
2022-12-15T13:23:21.349Z,49599.41
2022-12-15T13:25:56.783Z,49619.34
2022-12-15T13:28:45.587Z,49627.31
2022-12-15T13:31:19.110Z,49603.41
2022-12-15T13:33:55.720Z,49627.31
2022-12-15T13:36:37.686Z,49613.38
2022-12-15T13:39:30.182Z,49587.47
2022-12-15T13:44:52.665Z,49553.56
2022-12-15T13:47:19.213Z,49599.41
2022-12-15T13:50:01.463Z,49577.50
2022-12-15T13:53:16.475Z,49547.59
2022-12-15T13:55:28.092Z,49563.53
2022-12-15T13:58:00.657Z,49589.44
2022-12-15T14:00:27.449Z,49539.63
2022-12-15T14:03:10.393Z,49579.47
2022-12-15T14:05:39.082Z,49601.41
2022-12-15T14:08:16.697Z,49577.50
2022-12-15T14:11:22.546Z,49577.50
2022-12-15T14:13:54.189Z,49579.47
2022-12-15T14:16:22.784Z,49585.47
2022-12-15T14:19:10.805Z,49583.47
2022-12-15T14:21:37.470Z,49607.41
2022-12-15T14:24:38.097Z,49639.28
2022-12-15T14:27:05.970Z,49619.34
2022-12-15T14:29:32.583Z,49645.28
2022-12-15T14:32:00.383Z,49611.38
2022-12-15T14:34:38.916Z,49619.34
2022-12-15T14:37:15.787Z,49599.41
2022-12-15T14:39:46.176Z,49635.31
2022-12-15T14:42:20.753Z,49667.19
2022-12-15T14:44:50.821Z,49687.13
2022-12-15T14:47:26.994Z,49675.19
2022-12-15T14:49:55.489Z,49683.16
2022-12-15T14:52:27.483Z,49671.19
2022-12-15T14:54:59.699Z,49683.16
2022-12-15T14:57:29.285Z,49695.09
2022-12-15T14:59:55.972Z,49734.97
2022-12-15T15:02:29.684Z,49703.09
2022-12-15T15:05:03.039Z,49695.09
2022-12-15T15:07:32.454Z,49731.00
2022-12-15T15:10:00.233Z,49711.06
2022-12-15T15:12:46.008Z,49683.16
2022-12-15T15:15:19.111Z,49731.00
2022-12-15T15:17:50.982Z,49695.09
2022-12-15T15:20:22.015Z,49703.09
2022-12-15T15:23:07.406Z,49734.97
2022-12-15T15:25:39.344Z,49679.16
2022-12-15T15:28:12.698Z,49742.94
2022-12-15T15:30:52.026Z,49727.00
2022-12-15T15:33:24.653Z,49782.81
2022-12-15T15:35:54.901Z,49707.06
2022-12-15T15:38:22.985Z,49717.03
2022-12-15T15:41:00.184Z,49742.94
2022-12-15T15:43:28.096Z,49709.06
2022-12-15T15:46:02.744Z,49756.91
2022-12-15T15:49:04.075Z,49746.94
2022-12-15T15:51:32.495Z,49693.13
2022-12-15T15:54:02.666Z,49754.91
2022-12-15T15:56:30.969Z,49731.00
2022-12-15T15:58:59.403Z,49746.94
2022-12-15T16:01:26.128Z,49727.00
2022-12-15T16:03:52.917Z,49756.91
2022-12-15T16:06:21.847Z,49754.91
2022-12-15T16:08:53.890Z,49754.91
2022-12-15T16:11:22.249Z,49746.94
2022-12-15T16:13:48.928Z,49744.94
2022-12-15T16:16:19.490Z,49727.00
2022-12-15T16:18:46.206Z,49762.88
2022-12-15T16:21:14.663Z,49748.94
2022-12-15T16:23:44.889Z,49746.94
2022-12-15T16:26:25.591Z,49762.88
2022-12-15T16:28:52.218Z,49768.88
2022-12-15T16:31:32.961Z,49731.00
2022-12-15T16:34:05.225Z,49715.03
2022-12-15T16:36:32.395Z,49786.81
2022-12-15T16:38:59.128Z,49701.09
2022-12-15T16:41:27.678Z,49736.97
2022-12-15T16:43:54.436Z,49762.88
2022-12-15T16:46:21.162Z,49770.88
2022-12-15T16:48:48.137Z,49766.88
2022-12-15T16:51:34.251Z,49764.88
2022-12-15T16:54:01.271Z,49734.97
2022-12-15T16:56:28.067Z,49760.91
2022-12-15T16:59:15.483Z,49760.91
2022-12-15T17:01:44.619Z,49758.91
2022-12-15T17:04:11.895Z,49790.81
2022-12-15T17:06:38.825Z,49733.00
2022-12-15T17:09:08.840Z,49756.91
2022-12-15T17:11:35.636Z,49786.81
2022-12-15T17:14:02.356Z,49760.91
2022-12-15T17:16:29.090Z,49786.81
2022-12-15T17:18:56.007Z,49770.88
2022-12-15T17:21:31.849Z,49780.84
2022-12-15T17:24:06.445Z,49802.75
2022-12-15T17:26:36.413Z,49772.84
2022-12-15T17:29:09.269Z,49784.81
2022-12-15T17:31:36.474Z,49744.94
2022-12-15T17:34:30.663Z,49754.91
2022-12-15T17:37:04.326Z,49792.78
2022-12-15T17:39:32.778Z,49756.91
2022-12-15T17:42:01.483Z,49774.84
2022-12-15T17:44:34.185Z,49734.97
2022-12-15T17:47:05.522Z,49776.84
2022-12-15T17:49:36.195Z,49794.78
2022-12-15T17:52:13.213Z,49786.81
2022-12-15T17:54:39.904Z,49786.81
2022-12-15T17:57:09.437Z,49794.78
2022-12-15T17:59:36.049Z,49774.84
2022-12-15T18:02:02.782Z,49778.84
2022-12-15T18:04:29.910Z,49790.81
2022-12-15T18:07:01.559Z,49778.84
2022-12-15T18:09:29.049Z,49766.88
2022-12-15T18:11:55.661Z,49772.84
2022-12-15T18:14:23.025Z,49774.84
2022-12-15T18:16:50.248Z,49776.84
2022-12-15T18:19:16.936Z,49754.91
2022-12-15T18:21:43.598Z,49774.84
2022-12-15T18:24:15.479Z,49754.91
2022-12-15T18:26:43.155Z,49733.00
2022-12-15T18:29:17.603Z,49746.94
2022-12-15T18:31:48.210Z,49723.03
2022-12-15T18:34:21.231Z,49748.94
2022-12-15T18:36:48.355Z,49721.03
2022-12-15T18:39:23.598Z,49738.97
2022-12-15T18:41:52.182Z,49768.88
2022-12-15T18:44:24.413Z,49772.84
2022-12-15T18:46:51.452Z,49772.84
2022-12-15T18:49:19.461Z,49725.00
2022-12-15T18:51:46.933Z,49766.88
2022-12-15T18:54:22.517Z,49790.81
2022-12-15T18:56:50.249Z,49770.88
2022-12-15T18:59:18.843Z,49796.78
2022-12-15T19:01:47.568Z,49778.84
2022-12-15T19:04:15.153Z,49764.88
2022-12-15T19:06:42.478Z,49772.84
2022-12-15T19:09:15.964Z,49778.84
2022-12-15T19:12:05.818Z,49774.84
2022-12-15T19:14:41.419Z,49760.91
2022-12-15T19:17:32.527Z,49794.78
2022-12-15T19:20:17.714Z,49754.91
2022-12-15T19:22:46.759Z,49768.88
2022-12-15T19:25:25.945Z,49746.94
2022-12-15T19:27:58.904Z,49792.78
2022-12-15T19:30:28.765Z,49796.78
2022-12-15T19:32:55.892Z,49802.75
2022-12-15T19:35:22.817Z,49766.88
2022-12-15T19:37:50.048Z,49760.91
2022-12-15T19:40:22.482Z,49758.91
2022-12-15T19:42:49.822Z,49806.75
2022-12-15T19:45:19.535Z,49790.81
2022-12-15T19:47:46.295Z,49754.91
2022-12-15T19:50:20.847Z,49758.91
2022-12-15T19:52:50.430Z,49806.75
2022-12-15T19:55:26.439Z,49798.78
2022-12-15T19:57:53.178Z,49806.75
2022-12-15T20:00:22.264Z,49776.84
2022-12-15T20:02:51.582Z,49758.91
2022-12-15T20:05:19.961Z,49756.91
2022-12-15T20:07:47.695Z,49744.94
2022-12-15T20:10:27.587Z,49808.75
2022-12-15T20:12:56.422Z,49786.81
2022-12-15T20:15:25.275Z,49770.88
2022-12-15T20:17:56.866Z,49798.78
2022-12-15T20:20:26.057Z,49774.84
2022-12-15T20:22:55.605Z,49758.91
2022-12-15T20:25:27.873Z,49768.88
2022-12-15T20:27:54.735Z,49778.84
2022-12-15T20:30:27.032Z,49772.84
2022-12-15T20:32:53.760Z,49786.81
2022-12-15T20:35:21.917Z,49754.91
2022-12-15T20:37:49.921Z,49770.88
2022-12-15T20:40:24.163Z,49796.78
2022-12-15T20:42:52.464Z,49758.91
2022-12-15T20:45:22.203Z,49790.81
2022-12-15T20:47:51.031Z,49800.78
2022-12-15T20:50:34.887Z,49776.84
2022-12-15T20:53:02.078Z,49822.69
2022-12-15T20:55:29.108Z,49754.91
2022-12-15T20:57:56.042Z,49794.78
2022-12-15T21:00:22.890Z,49810.75
2022-12-15T21:02:49.935Z,49782.81
2022-12-15T21:05:22.399Z,49764.88
2022-12-15T21:07:49.362Z,49818.72
2022-12-15T21:10:18.404Z,49780.84
2022-12-15T21:12:48.181Z,49790.81
2022-12-15T21:15:23.040Z,49780.84
2022-12-15T21:18:11.092Z,49784.81
2022-12-15T21:20:41.672Z,49786.81
2022-12-15T21:23:27.424Z,49810.75
2022-12-15T21:25:55.750Z,49822.69
2022-12-15T21:28:23.396Z,49778.84
2022-12-15T21:30:51.428Z,49814.72
2022-12-15T21:33:18.225Z,49804.75
2022-12-15T21:35:46.663Z,49822.69
2022-12-15T21:38:31.309Z,49802.75
2022-12-15T21:41:01.086Z,49794.78
2022-12-15T21:43:31.415Z,49790.81
2022-12-15T21:46:00.310Z,49774.84
2022-12-15T21:48:45.455Z,49822.69
2022-12-15T21:51:15.083Z,49786.81
2022-12-15T21:53:43.160Z,49820.69
2022-12-15T21:56:20.894Z,49786.81
2022-12-15T21:58:52.677Z,49800.78
2022-12-15T22:01:24.203Z,49818.72
2022-12-15T22:03:54.586Z,49806.75
2022-12-15T22:06:26.854Z,49850.59
2022-12-15T22:08:55.423Z,49808.75
2022-12-15T22:11:27.825Z,49814.72
2022-12-15T22:13:56.955Z,49838.66
2022-12-15T22:16:24.264Z,49810.75
2022-12-15T22:18:56.920Z,49770.88
2022-12-15T22:21:24.731Z,49810.75
2022-12-15T22:23:51.979Z,49784.81
2022-12-15T22:26:27.794Z,49816.72
2022-12-15T22:28:55.837Z,49848.63
2022-12-15T22:31:22.992Z,49828.69
2022-12-15T22:33:49.697Z,49814.72
2022-12-15T22:36:16.350Z,49790.81
2022-12-15T22:38:44.054Z,49826.69
2022-12-15T22:41:22.309Z,49786.81
2022-12-15T22:43:55.020Z,49790.81
2022-12-15T22:46:24.101Z,49782.81
2022-12-15T22:48:52.512Z,49808.75
2022-12-15T22:51:21.450Z,49826.69
2022-12-15T22:53:48.166Z,49834.66
2022-12-15T22:56:23.158Z,49796.78
2022-12-15T22:58:54.899Z,49766.88
2022-12-15T23:01:21.929Z,49798.78
2022-12-15T23:03:50.534Z,49790.81
2022-12-15T23:06:17.290Z,49778.84
2022-12-15T23:08:43.976Z,49794.78
2022-12-15T23:11:29.189Z,49812.72
2022-12-15T23:13:55.813Z,49802.75
2022-12-15T23:16:22.613Z,49800.78
2022-12-15T23:18:51.928Z,49766.88
2022-12-15T23:21:19.541Z,49766.88
2022-12-15T23:23:46.291Z,49824.69
2022-12-15T23:26:14.244Z,49774.84
2022-12-15T23:28:40.863Z,49772.84
2022-12-15T23:31:08.357Z,49790.81
2022-12-15T23:33:35.660Z,49800.78
2022-12-15T23:36:03.142Z,49796.78
2022-12-15T23:38:29.833Z,49794.78
2022-12-15T23:40:57.713Z,49822.69
2022-12-15T23:43:25.232Z,49752.91
2022-12-15T23:46:00.371Z,49806.75
2022-12-15T23:48:32.823Z,49788.81
2022-12-15T23:51:13.461Z,49796.78
2022-12-15T23:53:41.419Z,49798.78
2022-12-15T23:56:11.969Z,49818.72
2022-12-15T23:58:43.457Z,49792.78
